Time;durP1;ratioP1;P1;durP2;ratioP2;P2;SDS_P1;SDS_P2;PMS_P1;PMS_P2;Temp;Humidity;BMP_temperature;BMP_pressure;BME280_temperature;BME280_humidity;BME280_pressure;Samples;Min_cycle;Max_cycle;Signal;HPM_P1;HPM_P2
2023/02/12 00:02:34;;;;;;;17.57;15.87;;;3.50;99.90;;;4.42;91.17;99888.00;5217983;28;20562;-83
2023/02/12 00:05:09;;;;;;;17.23;15.53;;;3.60;99.90;;;4.41;91.70;99882.78;5222332;28;20630;-80
2023/02/12 00:07:42;;;;;;;17.67;15.77;;;3.60;99.90;;;4.43;91.60;99892.31;5226900;28;20685;-83
2023/02/12 00:10:15;;;;;;;19.33;17.03;;;3.60;99.90;;;4.45;91.86;99897.56;5226098;28;20693;-83
2023/02/12 00:12:48;;;;;;;18.47;16.47;;;3.50;99.90;;;4.40;92.40;99904.63;5217571;28;20306;-83
2023/02/12 00:15:22;;;;;;;16.50;14.60;;;3.60;99.90;;;4.42;92.48;99912.41;5217996;28;20202;-83
2023/02/12 00:17:55;;;;;;;16.07;14.40;;;3.60;99.90;;;4.34;92.32;99901.41;5226922;28;20194;-84
2023/02/12 00:20:29;;;;;;;17.33;15.63;;;3.50;99.90;;;4.33;92.82;99896.19;5223281;28;20250;-83
2023/02/12 00:23:03;;;;;;;15.80;14.20;;;3.50;99.90;;;4.36;92.82;99901.59;5218605;28;20274;-84
2023/02/12 00:25:40;;;;;;;18.03;16.23;;;3.50;99.90;;;4.39;92.23;99897.78;5219033;28;20278;-84
2023/02/12 00:28:14;;;;;;;18.50;16.57;;;3.50;99.90;;;4.46;92.09;99890.16;5223504;28;20205;-83
2023/02/12 00:30:47;;;;;;;17.73;15.97;;;3.50;99.90;;;4.38;92.36;99888.38;5219934;28;20197;-84
2023/02/12 00:33:20;;;;;;;21.27;17.93;;;3.50;99.90;;;4.24;91.74;99889.34;5223238;28;20255;-82
2023/02/12 00:35:58;;;;;;;18.27;16.17;;;3.50;99.90;;;4.27;92.07;99891.31;5223732;28;20236;-83
2023/02/12 00:38:32;;;;;;;17.63;15.93;;;3.50;99.90;;;4.28;92.40;99904.13;5220350;28;20239;-83
2023/02/12 00:41:05;;;;;;;18.23;16.43;;;3.50;99.90;;;4.29;92.74;99903.44;5221797;28;20229;-84
2023/02/12 00:43:38;;;;;;;17.70;15.93;;;3.50;99.90;;;4.32;92.36;99895.28;5221996;28;20244;-83
2023/02/12 00:46:12;;;;;;;17.80;15.90;;;3.50;99.90;;;4.32;93.13;99905.41;5225153;28;20319;-84
2023/02/12 00:48:45;;;;;;;17.90;16.00;;;3.50;99.90;;;4.29;92.76;99911.03;5220620;28;20690;-84
2023/02/12 00:51:20;;;;;;;17.77;16.07;;;3.50;99.90;;;4.26;93.19;99909.75;5222416;28;20281;-83
2023/02/12 00:53:53;;;;;;;19.33;17.40;;;3.50;99.90;;;4.36;93.41;99910.09;5224669;28;20288;-83
2023/02/12 00:56:26;;;;;;;18.13;16.23;;;3.60;99.90;;;4.40;93.66;99904.63;5219353;28;20228;-84
2023/02/12 00:58:59;;;;;;;18.03;16.10;;;3.60;99.90;;;4.46;93.33;99896.81;5224508;28;20613;-82
2023/02/12 01:01:32;;;;;;;16.67;14.67;;;3.60;99.90;;;4.45;93.22;99898.47;5224911;28;20201;-83
2023/02/12 01:04:06;;;;;;;16.23;14.60;;;3.60;99.90;;;4.46;93.52;99900.28;5222422;28;20220;-82
2023/02/12 01:06:40;;;;;;;16.03;14.43;;;3.60;99.90;;;4.46;93.13;99894.28;5217151;28;20201;-83
2023/02/12 01:09:14;;;;;;;17.20;15.50;;;3.60;99.90;;;4.45;93.41;99902.63;5222862;28;22052;-83
2023/02/12 01:11:47;;;;;;;16.43;14.50;;;3.60;99.90;;;4.46;93.31;99895.22;5220608;28;20201;-83
2023/02/12 01:14:21;;;;;;;19.37;17.23;;;3.60;99.90;;;4.37;93.30;99890.72;5217098;28;20253;-83
2023/02/12 01:16:54;;;;;;;17.70;15.63;;;3.60;99.90;;;4.40;93.63;99884.38;5221238;28;20198;-82
2023/02/12 01:19:27;;;;;;;17.43;15.70;;;3.60;99.90;;;4.43;93.55;99889.78;5223186;28;20287;-83
2023/02/12 01:22:02;;;;;;;18.23;16.33;;;3.60;99.90;;;4.49;93.55;99893.03;5222982;28;20212;-83
2023/02/12 01:24:35;;;;;;;17.47;15.77;;;3.60;99.90;;;4.54;93.07;99903.66;5220171;28;20213;-83
2023/02/12 01:27:08;;;;;;;16.93;15.27;;;3.60;99.90;;;4.50;92.88;99912.56;5219036;28;20205;-81
2023/02/12 01:29:43;;;;;;;17.03;15.20;;;3.60;99.90;;;4.50;92.64;99906.59;5221533;28;20224;-81
2023/02/12 01:32:16;;;;;;;17.10;15.40;;;3.60;99.90;;;4.47;92.64;99912.22;5219149;28;20201;-82
2023/02/12 01:34:49;;;;;;;17.70;15.77;;;3.60;99.90;;;4.38;92.90;99906.09;5222811;28;20228;-82
2023/02/12 01:37:24;;;;;;;17.77;15.97;;;3.60;99.90;;;4.37;93.85;99909.34;5221960;28;20296;-83
2023/02/12 01:39:57;;;;;;;16.77;15.07;;;3.60;99.90;;;4.38;94.10;99906.09;5215947;28;20280;-82
2023/02/12 01:42:30;;;;;;;17.57;15.77;;;3.60;99.90;;;4.38;93.90;99901.03;5220456;28;20202;-82
2023/02/12 01:45:48;;;;;;;18.90;16.90;;;3.60;99.90;;;4.42;93.79;99898.13;5215102;28;20221;-81
2023/02/12 01:48:27;;;;;;;19.00;17.10;;;3.60;99.90;;;4.46;93.36;99895.22;5216889;28;20251;-83
2023/02/12 01:51:02;;;;;;;16.60;14.87;;;3.60;99.90;;;4.45;93.88;99895.03;5217973;28;20317;-82
2023/02/12 01:53:42;;;;;;;17.93;15.33;;;3.50;99.90;;;4.44;93.48;99896.66;5222966;28;20224;-82
2023/02/12 01:56:16;;;;;;;15.80;14.33;;;3.50;99.90;;;4.38;93.62;99898.50;5221832;28;20549;-82
2023/02/12 01:58:52;;;;;;;16.63;14.97;;;3.50;99.90;;;4.37;93.64;99901.75;5224194;28;20617;-82
2023/02/12 02:01:29;;;;;;;17.10;15.13;;;3.50;99.90;;;4.39;93.86;99889.28;5219126;28;20226;-83
2023/02/12 02:04:08;;;;;;;16.57;14.93;;;3.50;99.90;;;4.40;93.83;99894.50;5218630;28;20266;-82
2023/02/12 02:06:49;;;;;;;17.40;15.73;;;3.50;99.90;;;4.38;94.13;99887.44;5221303;28;20281;-83
2023/02/12 02:09:25;;;;;;;17.27;15.20;;;3.50;99.90;;;4.37;94.06;99888.19;5221724;28;20310;-83
2023/02/12 02:14:52;;;;;;;16.17;14.63;;;3.50;99.90;;;4.38;94.06;99879.84;5220774;28;20274;-82
2023/02/12 02:17:47;;;;;;;16.03;14.43;;;3.50;99.90;;;4.33;94.09;99881.00;5219260;28;20197;-83
2023/02/12 02:21:13;;;;;;;16.20;14.70;;;3.50;99.90;;;4.30;94.65;99881.53;5227131;28;20189;-81
2023/02/12 02:24:05;;;;;;;17.77;15.90;;;3.50;99.90;;;4.27;95.24;99876.13;5227640;28;20271;-83
2023/02/12 02:27:13;;;;;;;17.50;15.80;;;3.50;99.90;;;4.28;94.88;99880.47;5222058;28;20288;-83
2023/02/12 02:30:31;;;;;;;17.70;15.97;;;3.50;99.90;;;4.34;95.06;99878.63;5219619;28;20327;-83
2023/02/12 02:33:27;;;;;;;19.57;17.57;;;3.50;99.90;;;4.41;93.83;99871.00;5225101;28;20213;-83
2023/02/12 02:36:16;;;;;;;18.10;16.40;;;3.50;99.90;;;4.34;94.35;99878.63;5228727;28;20266;-82
2023/02/12 02:38:54;;;;;;;18.07;16.27;;;3.50;99.90;;;4.33;94.63;99878.47;5211719;28;20218;-83
2023/02/12 02:41:34;;;;;;;18.23;16.20;;;3.50;99.90;;;4.34;94.61;99873.56;5225991;28;20278;-83
2023/02/12 02:44:15;;;;;;;17.73;15.83;;;3.40;99.90;;;4.30;94.84;99866.34;5224096;28;20634;-80
2023/02/12 02:46:53;;;;;;;18.77;16.77;;;3.50;99.90;;;4.31;95.39;99872.31;5223672;28;20228;-82
2023/02/12 02:49:33;;;;;;;17.97;16.07;;;3.50;99.90;;;4.31;95.57;99870.69;5227154;28;20208;-83
2023/02/12 02:52:12;;;;;;;17.17;15.37;;;3.50;99.90;;;4.37;95.23;99873.91;5228083;28;20628;-82
2023/02/12 02:54:50;;;;;;;17.03;15.23;;;3.50;99.90;;;4.32;94.70;99869.97;5228237;28;20309;-82
2023/02/12 02:57:30;;;;;;;17.60;15.73;;;3.50;99.90;;;4.32;95.19;99869.97;5225113;28;20232;-81
2023/02/12 03:00:12;;;;;;;17.47;15.40;;;3.50;99.90;;;4.32;95.88;99869.03;5221446;28;20197;-81
2023/02/12 03:02:52;;;;;;;16.83;15.23;;;3.50;99.90;;;4.33;95.46;99866.69;5228048;28;20247;-83
2023/02/12 03:05:32;;;;;;;17.27;15.47;;;3.50;99.90;;;4.35;95.24;99875.38;5225020;28;20291;-83
2023/02/12 03:08:10;;;;;;;17.67;15.57;;;3.50;99.90;;;4.38;95.40;99879.84;5227650;28;20205;-83
2023/02/12 03:10:49;;;;;;;16.97;15.27;;;3.50;99.90;;;4.37;95.42;99880.59;5226023;28;20252;-82
2023/02/12 03:13:28;;;;;;;18.07;16.17;;;3.50;99.90;;;4.38;95.46;99870.66;5224702;28;20362;-83
2023/02/12 03:16:07;;;;;;;20.73;18.63;;;3.60;99.90;;;4.37;95.71;99878.97;5226653;28;20236;-82
2023/02/12 03:18:47;;;;;;;18.80;16.83;;;3.50;99.90;;;4.38;95.82;99878.25;5226952;28;20288;-82
2023/02/12 03:21:28;;;;;;;19.10;17.10;;;3.60;99.90;;;4.46;95.57;99885.09;5220054;28;20189;-84
2023/02/12 03:24:11;;;;;;;18.17;16.30;;;3.60;99.90;;;4.61;94.13;99890.09;5220367;28;20763;-83
2023/02/12 03:26:51;;;;;;;18.27;16.47;;;3.60;99.90;;;4.46;94.34;99889.22;5222066;28;20229;-83
2023/02/12 03:29:24;;;;;;;18.20;16.27;;;3.60;99.90;;;4.42;94.42;99888.00;5223691;28;20198;-83
2023/02/12 03:32:26;;;;;;;18.27;16.37;;;3.60;99.90;;;4.39;95.32;99887.66;5215541;28;20221;-83
2023/02/12 03:35:10;;;;;;;18.33;16.43;;;3.50;99.90;;;4.40;95.03;99883.47;5224707;28;20304;-82
2023/02/12 03:37:53;;;;;;;19.03;16.80;;;3.50;99.90;;;4.42;95.11;99888.00;5222842;28;20202;-83
2023/02/12 03:40:34;;;;;;;19.27;17.27;;;3.50;99.90;;;4.41;95.33;99885.31;5222173;28;20228;-81
2023/02/12 03:43:15;;;;;;;19.27;17.30;;;3.50;99.90;;;4.37;95.02;99888.19;5223259;28;20244;-83
2023/02/12 03:45:56;;;;;;;18.80;17.00;;;3.50;99.90;;;4.34;95.50;99883.69;5223927;28;20426;-82
2023/02/12 03:48:35;;;;;;;19.90;17.73;;;3.50;99.90;;;4.27;96.03;99886.25;5219942;28;20205;-81
2023/02/12 03:51:17;;;;;;;19.30;17.40;;;3.50;99.90;;;4.29;96.24;99884.78;5217270;28;20919;-82
2023/02/12 03:53:50;;;;;;;19.13;17.17;;;3.50;99.90;;;4.32;96.37;99884.22;5220992;28;20233;-82
2023/02/12 03:56:29;;;;;;;18.27;16.50;;;3.60;99.90;;;4.34;96.18;99891.28;5226505;28;20244;-82
2023/02/12 03:59:04;;;;;;;18.97;16.97;;;3.50;99.90;;;4.38;96.03;99890.91;5224042;28;20721;-83
2023/02/12 04:01:37;;;;;;;20.67;17.83;;;3.60;99.90;;;4.42;96.20;99894.69;5222000;28;20193;-82
2023/02/12 04:04:11;;;;;;;19.17;17.13;;;3.60;99.90;;;4.41;95.90;99887.84;5216742;28;20218;-81
2023/02/12 04:06:49;;;;;;;18.13;16.23;;;3.60;99.90;;;4.40;95.70;99893.59;5225653;28;20193;-81
2023/02/12 04:09:24;;;;;;;20.27;18.17;;;3.50;99.90;;;4.43;95.56;99904.97;5220394;28;20725;-82
2023/02/12 04:12:20;;;;;;;19.47;17.27;;;3.50;99.90;;;4.44;95.44;99911.88;5225489;28;20317;-83
2023/02/12 04:15:03;;;;;;;20.50;17.70;;;3.50;99.90;;;4.37;95.67;99906.81;5222773;28;20259;-83
2023/02/12 04:17:49;;;;;;;19.10;16.97;;;3.50;99.90;;;4.32;95.47;99913.00;5222531;28;20239;-84
2023/02/12 04:20:33;;;;;;;20.17;18.07;;;3.40;99.90;;;4.30;96.05;99911.91;5228429;28;20301;-83
2023/02/12 04:23:18;;;;;;;20.00;18.00;;;3.50;99.90;;;4.28;95.72;99913.38;5227445;28;20249;-85
2023/02/12 04:26:03;;;;;;;22.23;19.60;;;3.50;99.90;;;4.27;96.54;99909.03;5224290;28;20732;-84
2023/02/12 04:28:46;;;;;;;23.07;20.70;;;3.50;99.90;;;4.34;96.19;99906.47;5221145;28;20202;-84
2023/02/12 04:31:30;;;;;;;23.57;21.03;;;3.50;99.90;;;4.34;96.80;99911.53;5223927;28;20217;-83
2023/02/12 04:34:10;;;;;;;25.20;20.60;;;3.60;99.90;;;4.38;96.48;99912.78;5226144;28;20225;-82
2023/02/12 04:36:50;;;;;;;22.77;20.37;;;3.60;99.90;;;4.36;96.65;99916.78;5213673;28;20326;-83
2023/02/12 04:39:28;;;;;;;23.37;20.50;;;3.60;99.90;;;4.38;96.18;99906.09;5222577;28;20241;-83
2023/02/12 04:42:02;;;;;;;22.67;20.37;;;3.60;99.90;;;4.40;96.49;99912.22;5214808;28;20221;-83
2023/02/12 04:44:42;;;;;;;22.90;20.60;;;3.60;99.90;;;4.43;96.55;99909.13;5225755;28;20282;-83
2023/02/12 04:47:17;;;;;;;21.87;19.63;;;3.60;99.90;;;4.45;96.58;99911.13;5224748;28;20201;-84
2023/02/12 04:49:50;;;;;;;21.63;19.20;;;3.60;99.90;;;4.44;96.49;99911.88;5224871;28;20227;-84
2023/02/12 04:52:23;;;;;;;22.73;20.33;;;3.60;99.90;;;4.43;96.90;99919.28;5223630;28;20304;-84
2023/02/12 04:54:57;;;;;;;22.03;19.73;;;3.60;99.90;;;4.43;96.77;99920.16;5221838;28;20311;-84
2023/02/12 04:57:31;;;;;;;21.23;19.03;;;3.60;99.90;;;4.43;96.97;99917.63;5220193;28;20638;-84
2023/02/12 05:00:05;;;;;;;21.83;19.63;;;3.60;99.90;;;4.43;96.88;99914.19;5220494;28;20243;-83
2023/02/12 05:02:39;;;;;;;25.23;21.73;;;3.60;99.90;;;4.40;96.54;99913.84;5223942;28;20279;-82
2023/02/12 05:05:12;;;;;;;21.63;18.60;;;3.60;99.90;;;4.40;96.48;99914.75;5220546;28;20262;-83
2023/02/12 05:07:45;;;;;;;23.17;20.83;;;3.50;99.90;;;4.37;96.49;99911.88;5222648;28;20201;-82
2023/02/12 05:10:20;;;;;;;22.43;20.10;;;3.50;99.90;;;4.34;96.30;99909.00;5220774;28;20215;-83
2023/02/12 05:12:54;;;;;;;25.03;21.93;;;3.50;99.90;;;4.33;96.62;99902.13;5224635;28;20721;-82
2023/02/12 05:15:27;;;;;;;22.67;20.33;;;3.50;99.90;;;4.36;96.58;99901.59;5224071;28;20232;-82
2023/02/12 05:18:00;;;;;;;21.57;19.27;;;3.50;99.90;;;4.37;96.20;99901.75;5222630;28;20630;-83
2023/02/12 05:20:33;;;;;;;21.73;18.97;;;3.50;99.90;;;4.34;96.40;99900.50;5218762;28;20323;-83
2023/02/12 05:23:06;;;;;;;21.40;19.10;;;3.40;99.90;;;4.33;95.94;99903.78;5221399;28;20298;-83
2023/02/12 05:25:41;;;;;;;21.67;18.47;;;3.40;99.90;;;4.25;96.28;99905.41;5221551;28;20237;-84
2023/02/12 05:28:14;;;;;;;21.43;19.17;;;3.30;99.90;;;4.12;96.95;99902.19;5222114;28;20435;-83
2023/02/12 05:30:47;;;;;;;20.43;18.23;;;3.20;99.90;;;4.10;97.05;99916.31;5220311;28;20295;-82
2023/02/12 05:33:21;;;;;;;22.27;20.00;;;3.30;99.90;;;4.09;97.95;99917.03;5219397;28;20222;-83
2023/02/12 05:35:54;;;;;;;23.83;20.73;;;3.30;99.90;;;4.00;98.27;99910.19;5220907;28;20200;-82
2023/02/12 05:38:28;;;;;;;23.27;20.77;;;3.30;99.90;;;4.06;98.77;99909.97;5219738;28;20204;-83
2023/02/12 05:41:04;;;;;;;26.80;22.70;;;3.30;99.90;;;4.02;98.09;99918.84;5217995;28;20198;-82
2023/02/12 05:43:37;;;;;;;28.30;23.80;;;3.30;99.90;;;3.98;98.12;99916.72;5219943;28;20219;-82
2023/02/12 05:46:11;;;;;;;27.70;23.50;;;3.30;99.90;;;4.03;98.03;99920.69;5222341;28;20278;-82
2023/02/12 05:48:45;;;;;;;30.47;25.77;;;3.30;99.90;;;4.10;97.85;99923.91;5224433;28;20197;-83
2023/02/12 05:51:21;;;;;;;28.43;24.63;;;3.30;99.90;;;4.16;98.17;99917.03;5224311;28;20224;-83
2023/02/12 05:53:59;;;;;;;27.77;23.20;;;3.40;99.90;;;4.24;97.58;99926.41;5217970;28;20228;-84
2023/02/12 05:56:36;;;;;;;30.20;25.10;;;3.40;99.90;;;4.22;97.10;99923.69;5223021;28;20695;-84
2023/02/12 05:59:15;;;;;;;27.53;24.30;;;3.40;99.90;;;4.18;97.01;99915.59;5223193;28;20627;-81
2023/02/12 06:01:50;;;;;;;24.27;21.80;;;3.40;99.90;;;4.18;97.18;99929.13;5217676;28;20205;-84
2023/02/12 06:04:25;;;;;;;27.57;23.90;;;3.40;99.90;;;4.14;97.44;99923.53;5226348;28;20309;-83
2023/02/12 06:07:01;;;;;;;29.50;25.67;;;3.40;99.90;;;4.14;97.26;99918.47;5220112;28;20599;-83
2023/02/12 06:09:34;;;;;;;28.20;24.07;;;3.40;99.90;;;4.14;98.04;99914.31;5218672;28;20242;-84
2023/02/12 06:12:09;;;;;;;30.73;26.13;;;3.40;99.90;;;4.18;98.18;99920.66;5219705;28;20266;-83
2023/02/12 06:14:43;;;;;;;28.17;25.07;;;3.40;99.90;;;4.25;98.09;99929.09;5215850;28;20282;-83
2023/02/12 06:17:16;;;;;;;30.23;25.77;;;3.50;99.90;;;4.26;98.33;99913.19;5217097;28;20197;-83
2023/02/12 06:19:49;;;;;;;29.73;26.27;;;3.50;99.90;;;4.29;98.15;99922.75;5224217;28;20217;-83
2023/02/12 06:22:22;;;;;;;30.73;25.90;;;3.50;99.90;;;4.36;97.99;99921.84;5216170;28;20210;-84
2023/02/12 06:24:55;;;;;;;28.37;24.33;;;3.60;99.90;;;4.38;97.47;99926.34;5224268;28;20342;-83
2023/02/12 06:27:30;;;;;;;27.97;25.00;;;3.60;99.90;;;4.40;97.37;99914.75;5218369;28;20201;-84
2023/02/12 06:30:03;;;;;;;25.60;21.83;;;3.60;99.90;;;4.42;97.37;99925.97;5208343;28;20244;-83
2023/02/12 06:32:36;;;;;;;24.70;22.10;;;3.60;99.90;;;4.38;97.48;99926.34;5217974;28;20594;-84
2023/02/12 06:35:09;;;;;;;23.97;21.40;;;3.60;99.90;;;4.39;97.71;99923.09;5214862;28;20257;-80
2023/02/12 06:37:43;;;;;;;25.17;22.27;;;3.50;99.90;;;4.37;97.80;99921.09;5219952;28;20221;-84
2023/02/12 06:40:17;;;;;;;23.43;20.83;;;3.50;99.90;;;4.35;97.23;99926.00;5218524;28;20231;-84
2023/02/12 06:42:51;;;;;;;24.60;21.10;;;3.40;99.90;;;4.36;97.21;99924.38;5222829;28;20281;-85
2023/02/12 06:45:24;;;;;;;27.50;23.83;;;3.40;99.90;;;4.28;96.14;99934.50;5220648;28;20243;-84
2023/02/12 06:47:57;;;;;;;27.20;23.73;;;3.40;99.90;;;4.24;96.69;99934.00;5219202;28;20233;-84
2023/02/12 06:50:31;;;;;;;26.83;23.93;;;3.30;99.90;;;4.21;96.62;99933.66;5217730;28;20248;-84
2023/02/12 06:53:04;;;;;;;26.87;24.03;;;3.40;99.90;;;4.24;96.72;99939.06;5217710;28;20245;-84
2023/02/12 06:55:37;;;;;;;25.40;22.83;;;3.30;99.90;;;4.20;97.33;99944.47;5217996;28;20251;-84
2023/02/12 06:58:11;;;;;;;25.43;22.40;;;3.30;99.90;;;4.15;97.61;99943.03;5220751;28;20225;-81
2023/02/12 07:00:45;;;;;;;26.50;23.73;;;3.30;99.90;;;4.17;97.50;99954.25;5220912;28;20287;-84
2023/02/12 07:03:20;;;;;;;27.90;23.30;;;3.30;99.90;;;4.22;97.59;99950.63;5222330;28;20270;-83
2023/02/12 07:05:53;;;;;;;25.23;22.73;;;3.40;99.90;;;4.22;97.73;99956.59;5223900;28;20239;-84
2023/02/12 07:08:28;;;;;;;27.40;24.27;;;3.40;99.90;;;4.27;97.55;99952.97;5219765;28;20769;-83
2023/02/12 07:11:01;;;;;;;27.17;23.67;;;3.40;99.90;;;4.31;97.75;99959.28;5220342;28;20201;-84
2023/02/12 07:13:36;;;;;;;28.50;23.23;;;3.40;99.90;;;4.31;98.17;99946.63;5224767;28;20249;-83
2023/02/12 07:16:11;;;;;;;26.13;23.43;;;3.40;99.90;;;4.36;98.10;99957.28;5220355;28;20285;-83
2023/02/12 07:18:45;;;;;;;26.27;23.50;;;3.40;99.90;;;4.34;97.97;99952.03;5221304;28;20630;-84
2023/02/12 07:21:20;;;;;;;24.57;21.93;;;3.40;99.90;;;4.32;97.62;99956.03;5224217;28;20235;-84
2023/02/12 07:23:54;;;;;;;29.57;25.03;;;3.50;99.90;;;4.34;98.05;99957.09;5227256;28;20275;-82
2023/02/12 07:26:27;;;;;;;29.40;25.40;;;3.50;99.90;;;4.37;98.01;99965.03;5228398;28;20201;-83
2023/02/12 07:29:02;;;;;;;27.90;25.00;;;3.50;99.90;;;4.39;98.07;99965.22;5220065;28;20544;-83
2023/02/12 07:31:35;;;;;;;32.33;26.93;;;3.60;99.90;;;4.47;98.29;99962.84;5222878;28;20204;-83
2023/02/12 07:34:11;;;;;;;32.47;28.43;;;3.60;99.90;;;4.49;97.78;99955.41;5224965;28;20229;-84
2023/02/12 07:36:44;;;;;;;33.43;28.97;;;3.60;99.90;;;4.53;98.13;99959.22;5227810;28;20703;-84
2023/02/12 07:39:17;;;;;;;35.17;28.83;;;3.70;99.90;;;4.56;97.95;99952.88;5222994;28;20232;-84
2023/02/12 07:41:50;;;;;;;33.13;29.53;;;3.70;99.90;;;4.64;98.07;99953.75;5217193;28;20198;-83
2023/02/12 07:44:25;;;;;;;32.60;29.17;;;3.70;99.90;;;4.66;97.90;99960.75;5224483;28;20279;-82
2023/02/12 07:46:58;;;;;;;32.37;28.83;;;3.80;99.90;;;4.64;97.17;99951.22;5218479;28;20461;-81
2023/02/12 07:52:18;;;;;;;36.73;29.87;;;3.80;99.90;;;4.69;97.48;99950.09;5218727;28;20752;-82
2023/02/12 07:54:51;;;;;;;34.60;30.23;;;3.80;99.90;;;4.72;97.65;99955.50;5219657;28;20316;-83
2023/02/12 07:57:24;;;;;;;33.63;29.47;;;3.90;99.90;;;4.76;97.56;99947.53;5222143;28;20669;-83
2023/02/12 07:59:59;;;;;;;30.83;27.57;;;3.90;99.90;;;4.92;97.05;99951.06;5220197;28;20290;-83
2023/02/12 08:02:32;;;;;;;33.87;30.23;;;4.00;99.90;;;5.09;94.60;99954.56;5215822;28;20295;-82
2023/02/12 08:05:06;;;;;;;33.77;28.67;;;4.10;99.90;;;4.87;95.20;99951.28;5215147;28;20225;-83
2023/02/12 08:07:39;;;;;;;32.23;28.67;;;4.10;99.90;;;4.89;95.84;99955.81;5220965;28;20200;-84
2023/02/12 08:10:12;;;;;;;35.50;30.03;;;4.10;99.90;;;4.93;96.50;99957.94;5219217;28;20291;-82
2023/02/12 08:12:45;;;;;;;34.43;28.90;;;4.10;99.90;;;5.03;96.76;99962.41;5212012;28;20271;-83
2023/02/12 08:15:20;;;;;;;36.60;31.07;;;4.20;99.90;;;5.12;96.61;99957.44;5220577;28;20284;-83
2023/02/12 08:17:54;;;;;;;35.03;30.80;;;4.30;99.90;;;5.16;96.88;99962.16;5222181;28;20239;-82
2023/02/12 08:20:27;;;;;;;37.17;31.57;;;4.30;99.90;;;5.21;96.39;99961.03;5219829;28;20798;-80
2023/02/12 08:23:00;;;;;;;36.30;30.73;;;4.30;99.90;;;5.30;95.89;99959.53;5217772;28;20400;-83
2023/02/12 08:25:33;;;;;;;35.13;31.07;;;4.40;99.90;;;5.34;95.45;99954.06;5220041;28;20244;-82
2023/02/12 08:28:06;;;;;;;37.80;31.97;;;4.40;99.90;;;5.41;95.30;99958.19;5225189;28;20255;-82
2023/02/12 08:30:41;;;;;;;37.00;32.57;;;4.50;99.90;;;5.45;94.74;99959.44;5211983;28;20205;-82
2023/02/12 08:33:14;;;;;;;35.23;31.40;;;4.50;99.90;;;5.49;93.95;99953.94;5220208;28;20221;-82
2023/02/12 08:35:47;;;;;;;36.67;32.37;;;4.60;99.90;;;5.50;94.18;99955.78;5215708;28;20286;-82
2023/02/12 08:38:20;;;;;;;36.73;31.10;;;4.60;99.90;;;5.54;94.51;99958.78;5218844;28;20727;-82
2023/02/12 08:40:53;;;;;;;37.00;32.60;;;4.70;99.90;;;5.60;94.12;99964.53;5220050;28;20295;-83
2023/02/12 08:43:27;;;;;;;37.87;33.40;;;4.70;99.90;;;5.63;94.70;99961.44;5220549;28;20218;-82
2023/02/12 08:46:07;;;;;;;42.73;35.47;;;4.80;99.90;;;5.67;94.84;99953.47;5220984;28;20281;-83
2023/02/12 08:48:42;;;;;;;42.03;36.07;;;4.90;99.90;;;5.77;94.28;99953.72;5222385;28;20197;-81
2023/02/12 08:51:18;;;;;;;43.13;35.40;;;4.90;99.90;;;5.84;93.87;99946.06;5221092;28;20569;-81
2023/02/12 08:53:54;;;;;;;41.67;36.27;;;4.90;99.90;;;5.90;92.80;99944.91;5218291;28;20262;-80
2023/02/12 08:56:29;;;;;;;41.33;34.17;;;5.00;99.90;;;5.95;92.99;99948.88;5221640;28;20280;-82
2023/02/12 08:59:05;;;;;;;45.23;38.33;;;5.10;99.90;;;6.00;93.47;99947.75;5220957;28;20658;-81
2023/02/12 09:01:41;;;;;;;49.00;39.10;;;5.20;99.90;;;6.07;93.49;99950.22;5221330;28;20239;-82
2023/02/12 09:04:17;;;;;;;48.87;38.33;;;5.20;99.90;;;6.06;92.61;99945.84;5219659;28;20243;-81
2023/02/12 09:06:51;;;;;;;47.20;37.73;;;5.30;99.90;;;6.40;92.16;99957.13;5223220;28;20221;-81
2023/02/12 09:09:24;;;;;;;50.83;39.03;;;5.50;99.90;;;6.44;91.69;99950.00;5219628;28;20197;-81
2023/02/12 09:11:57;;;;;;;53.07;39.73;;;5.60;99.90;;;6.50;91.34;99949.75;5217800;28;20205;-81
2023/02/12 09:14:30;;;;;;;46.00;37.23;;;5.60;99.90;;;6.61;90.95;99944.19;5218169;28;20256;-81
2023/02/12 09:17:05;;;;;;;43.60;36.03;;;5.70;99.90;;;6.73;90.40;99948.00;5213954;28;20200;-81
2023/02/12 09:19:38;;;;;;;44.70;36.33;;;5.80;99.90;;;6.76;90.03;99955.06;5218717;28;20293;-84
2023/02/12 09:22:11;;;;;;;47.03;38.23;;;5.80;99.90;;;6.87;89.10;99944.38;5219228;28;20607;-82
2023/02/12 09:24:45;;;;;;;49.87;38.83;;;5.90;99.90;;;6.87;89.54;99949.47;5218607;28;20300;-82
2023/02/12 09:27:18;;;;;;;47.87;39.07;;;6.00;99.90;;;6.81;89.97;99950.44;5218990;28;20293;-81
2023/02/12 09:29:51;;;;;;;49.07;40.87;;;6.00;99.90;;;6.89;89.78;99947.06;5217616;28;20236;-81
2023/02/12 09:32:25;;;;;;;56.20;42.77;;;6.00;99.90;;;6.90;90.31;99946.34;5221900;28;20240;-82
2023/02/12 09:34:58;;;;;;;52.07;42.97;;;6.00;99.90;;;7.04;90.29;99938.53;5216937;28;20229;-81
2023/02/12 09:37:31;;;;;;;55.83;42.10;;;6.10;99.90;;;7.03;90.48;99946.88;5222345;28;20213;-82
2023/02/12 09:40:06;;;;;;;54.53;41.97;;;6.20;99.90;;;6.97;90.07;99941.16;5215968;28;20264;-82
2023/02/12 09:43:01;;;;;;;50.70;40.47;;;6.20;99.90;;;7.13;90.52;99938.56;5200886;28;20216;-83
2023/02/12 09:45:38;;;;;;;52.10;39.77;;;6.30;99.90;;;7.22;90.06;99939.53;5211743;28;20671;-82
2023/02/12 09:48:37;;;;;;;54.00;40.90;;;6.40;99.90;;;7.50;89.31;99940.72;5219093;28;20221;-82
2023/02/12 09:51:11;;;;;;;52.03;41.07;;;6.50;99.90;;;7.65;88.48;99938.84;5215858;28;20710;-83
2023/02/12 09:53:47;;;;;;;52.93;40.17;;;6.70;99.90;;;7.81;87.51;99941.28;5212812;28;20765;-83
2023/02/12 09:56:23;;;;;;;46.47;37.23;;;6.80;99.90;;;7.85;87.11;99944.31;5219578;28;20213;-82
2023/02/12 09:59:01;;;;;;;46.60;38.50;;;6.90;99.90;;;7.86;86.45;99950.28;5218279;28;20283;-83
2023/02/12 10:01:35;;;;;;;52.57;39.77;;;6.90;99.90;;;7.77;87.04;99940.09;5220215;28;20224;-82
2023/02/12 10:04:10;;;;;;;45.83;36.63;;;6.80;99.90;;;7.70;88.45;99941.84;5221538;28;20229;-81
2023/02/12 10:06:52;;;;;;;44.87;34.37;;;6.80;99.90;;;7.90;88.00;99943.13;5214940;28;20196;-82
2023/02/12 10:09:42;;;;;;;40.63;32.77;;;6.90;99.90;;;7.98;87.22;99954.06;5220778;28;20284;-83
2023/02/12 10:12:24;;;;;;;39.13;31.63;;;7.00;99.90;;;8.01;86.97;99956.03;5215782;28;20275;-83
2023/02/12 10:15:14;;;;;;;39.47;31.23;;;7.10;99.90;;;8.12;86.76;99958.00;5216216;28;20252;-83
2023/02/12 10:17:56;;;;;;;40.73;31.43;;;7.20;99.90;;;8.23;85.44;99954.91;5222338;28;20221;-83
2023/02/12 10:21:02;;;;;;;36.37;29.63;;;7.30;99.90;;;8.26;85.09;99959.41;5216620;28;20647;-83
2023/02/12 10:23:57;;;;;;;34.93;27.87;;;7.30;99.90;;;8.43;84.86;99949.28;5216629;28;20213;-83
2023/02/12 10:26:34;;;;;;;27.37;22.53;;;7.40;99.90;;;8.66;83.54;99949.00;5221027;28;20209;-83
2023/02/12 10:29:15;;;;;;;25.07;19.43;;;7.60;99.90;;;8.57;83.63;99941.34;5222888;28;20193;-81
2023/02/12 10:31:53;;;;;;;22.90;19.03;;;7.60;99.90;;;8.54;85.00;99948.69;5213130;28;20286;-81
2023/02/12 10:34:33;;;;;;;22.67;17.63;;;7.70;99.90;;;8.69;82.57;99943.28;5216879;28;20598;-82
2023/02/12 10:37:18;;;;;;;20.10;16.43;;;7.80;99.90;;;8.52;84.53;99942.53;5218817;28;20567;-81
2023/02/12 10:39:57;;;;;;;15.77;13.10;;;7.70;99.90;;;8.75;83.03;99943.88;5218465;28;20224;-81
2023/02/12 10:42:38;;;;;;;11.13;9.93;;;7.80;99.90;;;8.73;83.40;99941.22;5223242;28;20648;-81
2023/02/12 10:45:15;;;;;;;10.60;9.13;;;7.90;99.90;;;8.60;83.34;99939.84;5221471;28;20263;-81
2023/02/12 10:47:53;;;;;;;11.20;9.40;;;7.80;99.90;;;8.81;83.16;99936.84;5223072;28;20258;-81
2023/02/12 10:50:39;;;;;;;10.23;8.93;;;7.90;99.90;;;8.86;82.88;99933.09;5222268;28;21070;-82
2023/02/12 10:53:22;;;;;;;9.23;8.18;;;8.00;99.90;;;8.98;82.52;99934.25;5226290;28;20378;-82
2023/02/12 10:56:13;;;;;;;9.90;8.80;;;8.10;99.90;;;8.87;81.84;99934.91;5220685;28;20286;-83
2023/02/12 10:58:58;;;;;;;9.32;8.32;;;8.10;99.90;;;8.80;81.75;99933.38;5217193;28;20198;-82
2023/02/12 11:01:34;;;;;;;8.93;8.03;;;8.00;99.90;;;8.73;82.25;99930.13;5225616;28;20897;-83
2023/02/12 11:04:24;;;;;;;8.10;7.17;;;8.00;99.90;;;8.81;82.18;99931.72;5229227;28;20221;-81
2023/02/12 11:07:00;;;;;;;7.53;6.75;;;8.00;99.90;;;8.93;81.22;99920.19;5221771;28;20213;-84
2023/02/12 11:09:44;;;;;;;7.67;6.70;;;8.20;99.90;;;9.10;81.13;99918.34;5222405;28;20232;-82